Portada
METAR-TAF:

METAR-TAF

Aeropuertos :

Cervia, Italia

latitud: 44-13N, longitud: 012-18E, altitud: 6 m

Observación

El informe se hizo hace 1 hora y 2 minutos, a las 12:55 UTC
Viento 9 kt del este-noreste
Temperatura 15°C
Humedad 63%
Presión 1015 hPa
Visibilidad 10 km o más
sin nubes por debajo de 1500 m y sin presencia de cumulonimbus.

METAR: LIPC 051255Z 07009KT CAVOK 15/08 Q1015 RMK BKN BKN080 VIS MIN 9999 WIND THR11 07009KT WIND THR29 /////KT BLU

Hora: 14:57 (13:57 UTC)

Pronóstico

El informe se hizo hace 2 horas y 57 minutos, a las 11:00 UTC
Pronóstico válido del 05 a las 12 UTC al 05 a las 21 UTC
Viento 5 kt del este-noreste
Visibilidad 10 km o más
Nubes dispersas a una altura de 6000 ft

TAF: LIPC 051100Z 0512/0521 06005KT 9999 SCT060

Observaciones y pronósticos meteorológicos de más de 4000 aeropuertos (mensajes METAR y TAF).

Los puntos amarillos y rojos representan las estaciones disponibles.

Ponga el ratón en el punto deseado para ver el nombre de la estación.

Haga clic para ver las observaciones y los pronósticos meteorológicos.

Para cambiar el mapa : haga clic en los botones verdes con una cruz de color negro para hacer un zoom, en el botón verde con un guión para alejar o en las flechas verdes para mapas adyacentes.


METAR-TAF: